FNKU

Kuito Airport

Kuito, Angola
TAF FNKU 161100Z 1612/1624 09012KT CAVOK
Issued Valid From Valid To
Jul-16 @ 11:00 UTC
(9 hours ago)
Jul-16 @ 12:00 UTC
(8 hours ago)
Jul-17 @ 00:00 UTC
(in 4 hours)
Jul-16 @ 12:00 to Jul-17 @ 00:00
TAF FNKU 161100Z 1612/1624 09012KT CAVOK
Wind Visibility Clouds Conditions
90° at 12 knots 10,000+ meters
  • No significant clouds
TAF FNKU 161100Z 1612/1624 09012KT CAVOK
Issued Jul-16 @ 11:00 UTC
(9 hours ago)
Valid From Jul-16 @ 12:00 UTC
(8 hours ago)
Valid To Jul-17 @ 00:00 UTC
(in 4 hours)
Jul-16 @ 12:00 - Jul-17 @ 00:00
Wind Visibility
90° at 12 knots 10,000+ meters
Clouds
  • No significant clouds
Conditions